BZZ weather

RAF Brize Norton
Brize Norton, England, United Kingdom

Public forecast

Using degrees Celsius for public forecast. Weather courtesy of forecast.io.

METAR (pilot weather report)

Retrieved 2019/03/23 15:50 UTC (46 minutes ago):

EGVN 231550Z 05009KT 9999 FEW035 SCT130 BKN190 11/02 Q1032 NOSIG

TAF (pilot weather forecast)

Retrieved 2019/03/23 15:00 UTC (2 hours ago):

TAF EGVN 231316Z 2315/2415 04006KT 9999 FEW035 PROB30 2402/2406 7000 HZ